Aviation Digital Data Service (ADDS)

Output produced by METARs form (1758 UTC 23 April 2014)
found at http://www.aviationweather.gov/adds/metars/
 
KCRQ 231753Z 23006KT 10SM CLR 17/09 A2996 RMK AO2 SLP143 T01720094 10178 20122 55001
KCRQ 231653Z VRB03KT 10SM FEW027 17/08 A2996 RMK AO2 SLP142 T01670083
KCRQ 231553Z 13003KT 10SM SCT023 16/09 A2996 RMK AO2 SLP143 T01610089
KCRQ 231546Z 18004KT 10SM SCT023 SCT027 16/09 A2996 RMK AO2
KCRQ 231453Z 09005KT 10SM BKN023 15/09 A2996 RMK AO2 SLP144 T01500089 53013
KCRQ 231722Z 2318/2418 VRB04KT P6SM FEW025 
     FM231900 26009KT P6SM SCT250 
     FM240200 VRB04KT P6SM SCT250 
     FM240900 VRB03KT P6SM SCT015 
     TEMPO 2412/2416 BKN012 
     FM241700 21006KT P6SM FEW018